createdAt,value
2022-12-26T00:00:18.589Z,933.31
2022-12-26T00:01:18.565Z,933.30
2022-12-26T00:02:18.589Z,933.34
2022-12-26T00:03:18.726Z,933.34
2022-12-26T00:04:51.799Z,933.34
2022-12-26T00:05:18.654Z,933.34
2022-12-26T00:06:18.652Z,933.40
2022-12-26T00:07:18.685Z,933.36
2022-12-26T00:08:18.686Z,933.44
2022-12-26T00:09:18.702Z,933.45
2022-12-26T00:10:18.709Z,933.42
2022-12-26T00:11:18.733Z,933.48
2022-12-26T00:12:18.755Z,933.47
2022-12-26T00:13:38.682Z,933.46
2022-12-26T00:14:18.772Z,933.48
2022-12-26T00:15:18.802Z,933.52
2022-12-26T00:16:18.818Z,933.49
2022-12-26T00:17:18.838Z,933.53
2022-12-26T00:18:18.856Z,933.58
2022-12-26T00:19:18.860Z,933.57
2022-12-26T00:20:18.885Z,933.59
2022-12-26T00:21:18.914Z,933.62
2022-12-26T00:22:18.907Z,933.63
2022-12-26T00:23:18.918Z,933.64
2022-12-26T00:24:18.934Z,933.65
2022-12-26T00:25:18.957Z,933.67
2022-12-26T00:26:18.970Z,933.67
2022-12-26T00:27:18.980Z,933.67
2022-12-26T00:28:19.004Z,933.67
2022-12-26T00:29:19.023Z,933.67
2022-12-26T00:30:19.028Z,933.71
2022-12-26T00:31:19.131Z,933.71
2022-12-26T00:32:19.071Z,933.72
2022-12-26T00:33:19.083Z,933.74
2022-12-26T00:34:19.100Z,933.74
2022-12-26T00:35:19.116Z,933.74
2022-12-26T00:36:19.133Z,933.78
2022-12-26T00:37:19.167Z,933.79
2022-12-26T00:38:19.165Z,933.81
2022-12-26T00:39:19.175Z,933.82
2022-12-26T00:40:19.188Z,933.79
2022-12-26T00:41:19.218Z,933.78
2022-12-26T00:42:19.227Z,933.80
2022-12-26T00:43:19.244Z,933.82
2022-12-26T00:44:19.260Z,933.85
2022-12-26T00:45:19.270Z,933.88
2022-12-26T00:46:19.325Z,933.87
2022-12-26T00:47:19.307Z,933.88
2022-12-26T00:48:19.324Z,933.90
2022-12-26T00:49:19.339Z,933.87
2022-12-26T00:50:19.359Z,933.86
2022-12-26T00:51:19.387Z,933.88
2022-12-26T00:52:19.380Z,933.87
2022-12-26T00:53:19.422Z,933.84
2022-12-26T00:54:19.433Z,933.85
2022-12-26T00:55:19.435Z,933.84
2022-12-26T00:56:19.470Z,933.86
2022-12-26T00:57:19.459Z,933.87
2022-12-26T00:58:19.483Z,933.90
2022-12-26T00:59:19.500Z,933.90
2022-12-26T01:00:19.505Z,933.91
2022-12-26T01:01:19.753Z,933.88
2022-12-26T01:02:19.662Z,933.86
2022-12-26T01:03:19.651Z,933.85
2022-12-26T01:04:19.578Z,933.86
2022-12-26T01:05:19.589Z,933.86
2022-12-26T01:06:19.605Z,933.84
2022-12-26T01:07:19.627Z,933.80
2022-12-26T01:08:24.567Z,933.85
2022-12-26T01:09:19.669Z,933.83
2022-12-26T01:10:19.662Z,933.81
2022-12-26T01:11:19.692Z,933.80
2022-12-26T01:12:19.704Z,933.81
2022-12-26T01:13:19.722Z,933.84
2022-12-26T01:14:19.740Z,933.85
2022-12-26T01:15:19.751Z,933.83
2022-12-26T01:16:19.791Z,933.83
2022-12-26T01:17:19.786Z,933.84
2022-12-26T01:18:19.789Z,933.88
2022-12-26T01:19:19.809Z,933.91
2022-12-26T01:20:19.832Z,933.90
2022-12-26T01:21:19.842Z,933.91
2022-12-26T01:22:19.857Z,933.93
2022-12-26T01:23:19.880Z,933.88
2022-12-26T01:24:19.892Z,933.87
2022-12-26T01:25:19.936Z,933.82
2022-12-26T01:26:20.405Z,933.85
2022-12-26T01:27:19.938Z,933.85
2022-12-26T01:28:19.960Z,933.83
2022-12-26T01:29:19.987Z,933.82
2022-12-26T01:30:19.982Z,933.82
2022-12-26T01:31:20.090Z,933.87
2022-12-26T01:32:20.024Z,933.81
2022-12-26T01:33:20.045Z,933.83
2022-12-26T01:34:20.059Z,933.80
2022-12-26T01:35:20.074Z,933.79
2022-12-26T01:36:20.085Z,933.81
2022-12-26T01:37:20.103Z,933.81
2022-12-26T01:38:20.120Z,933.80
2022-12-26T01:39:20.126Z,933.76
2022-12-26T01:40:20.142Z,933.76
2022-12-26T01:41:20.867Z,933.76
2022-12-26T01:42:20.187Z,933.74
2022-12-26T01:43:20.197Z,933.75
2022-12-26T01:44:20.206Z,933.76
2022-12-26T01:45:20.222Z,933.72
2022-12-26T01:46:20.317Z,933.71
2022-12-26T01:47:20.260Z,933.72
2022-12-26T01:48:20.289Z,933.73
2022-12-26T01:49:20.292Z,933.71
2022-12-26T01:50:20.301Z,933.69
2022-12-26T01:51:20.424Z,933.67
2022-12-26T01:52:20.341Z,933.72
2022-12-26T01:53:20.356Z,933.70
2022-12-26T01:54:39.423Z,933.70
2022-12-26T01:55:20.380Z,933.69
2022-12-26T01:56:20.398Z,933.72
2022-12-26T01:57:20.452Z,933.69
2022-12-26T01:58:20.434Z,933.73
2022-12-26T01:59:20.441Z,933.72
2022-12-26T02:00:20.466Z,933.72
2022-12-26T02:01:20.647Z,933.72
2022-12-26T02:02:20.603Z,933.73
2022-12-26T02:03:20.558Z,933.70
2022-12-26T02:04:20.532Z,933.71
2022-12-26T02:05:20.539Z,933.75
2022-12-26T02:06:20.560Z,933.76
2022-12-26T02:07:20.571Z,933.77
2022-12-26T02:08:20.585Z,933.78
2022-12-26T02:09:20.609Z,933.72
2022-12-26T02:10:20.646Z,933.77
2022-12-26T02:11:20.659Z,933.76
2022-12-26T02:12:35.509Z,933.73
2022-12-26T02:13:20.698Z,933.78
2022-12-26T02:14:20.688Z,933.74
2022-12-26T02:15:20.701Z,933.72
2022-12-26T02:16:20.811Z,933.75
2022-12-26T02:17:20.738Z,933.75
2022-12-26T02:18:20.754Z,933.77
2022-12-26T02:19:20.759Z,933.68
2022-12-26T02:20:20.869Z,933.72
2022-12-26T02:21:20.805Z,933.71
2022-12-26T02:22:20.805Z,933.70
2022-12-26T02:23:20.835Z,933.68
2022-12-26T02:24:20.837Z,933.70
2022-12-26T02:25:20.861Z,933.69
2022-12-26T02:26:20.873Z,933.68
2022-12-26T02:27:20.886Z,933.69
2022-12-26T02:28:20.907Z,933.70
2022-12-26T02:29:20.942Z,933.70
2022-12-26T02:30:20.931Z,933.70
2022-12-26T02:31:20.996Z,933.73
2022-12-26T02:32:21.063Z,933.71
2022-12-26T02:33:20.982Z,933.71
2022-12-26T02:34:21.013Z,933.74
2022-12-26T02:35:21.017Z,933.68
2022-12-26T02:36:21.032Z,933.70
2022-12-26T02:37:21.047Z,933.70
2022-12-26T02:38:21.065Z,933.68
2022-12-26T02:39:45.047Z,933.72
2022-12-26T02:40:21.089Z,933.72
2022-12-26T02:41:21.119Z,933.71
2022-12-26T02:42:21.121Z,933.73
2022-12-26T02:43:21.136Z,933.76
2022-12-26T02:44:21.152Z,933.75
2022-12-26T02:45:21.186Z,933.74
2022-12-26T02:46:21.245Z,933.73
2022-12-26T02:47:21.203Z,933.72
2022-12-26T02:48:21.224Z,933.69
2022-12-26T02:49:21.239Z,933.70
2022-12-26T02:50:21.254Z,933.71
2022-12-26T02:51:21.262Z,933.69
2022-12-26T02:52:21.279Z,933.67
2022-12-26T02:53:21.294Z,933.65
2022-12-26T02:54:21.309Z,933.69
2022-12-26T02:55:21.329Z,933.70
2022-12-26T02:56:21.344Z,933.67
2022-12-26T02:57:21.368Z,933.66
2022-12-26T02:58:21.389Z,933.60
2022-12-26T02:59:21.388Z,933.59
2022-12-26T03:00:21.416Z,933.57
2022-12-26T03:01:21.534Z,933.56
2022-12-26T03:02:21.583Z,933.52
2022-12-26T03:03:21.514Z,933.47
2022-12-26T03:04:21.468Z,933.46
2022-12-26T03:05:21.486Z,933.40
2022-12-26T03:06:21.504Z,933.42
2022-12-26T03:07:21.516Z,933.38
2022-12-26T03:08:21.541Z,933.39
2022-12-26T03:09:21.546Z,933.38
2022-12-26T03:10:21.564Z,933.37
2022-12-26T03:11:21.577Z,933.37
2022-12-26T03:12:21.599Z,933.34
2022-12-26T03:13:21.626Z,933.34
2022-12-26T03:14:21.630Z,933.33
2022-12-26T03:15:21.642Z,933.40
2022-12-26T03:16:21.705Z,933.32
2022-12-26T03:17:21.704Z,933.36
2022-12-26T03:18:58.071Z,933.34
2022-12-26T03:19:21.709Z,933.29
2022-12-26T03:20:21.734Z,933.34
2022-12-26T03:21:21.741Z,933.32
2022-12-26T03:22:21.754Z,933.34
2022-12-26T03:23:21.775Z,933.32
2022-12-26T03:24:21.790Z,933.32
2022-12-26T03:25:21.809Z,933.29
2022-12-26T03:26:21.812Z,933.31
2022-12-26T03:27:21.827Z,933.26
2022-12-26T03:28:21.854Z,933.26
2022-12-26T03:29:21.871Z,933.27
2022-12-26T03:30:21.882Z,933.27
2022-12-26T03:31:21.998Z,933.25
2022-12-26T03:32:21.920Z,933.27
2022-12-26T03:33:21.962Z,933.29
2022-12-26T03:34:21.943Z,933.27
2022-12-26T03:35:21.966Z,933.28
2022-12-26T03:36:21.977Z,933.26
2022-12-26T03:37:21.993Z,933.24
2022-12-26T03:38:22.000Z,933.21
2022-12-26T03:39:22.028Z,933.21
2022-12-26T03:40:22.038Z,933.19
2022-12-26T03:41:22.055Z,933.21
2022-12-26T03:42:22.062Z,933.17
2022-12-26T03:43:22.093Z,933.19
2022-12-26T03:44:22.115Z,933.20
2022-12-26T03:45:22.118Z,933.20
2022-12-26T03:46:22.219Z,933.20
2022-12-26T03:47:22.154Z,933.15
2022-12-26T03:48:22.157Z,933.15
2022-12-26T03:49:22.191Z,933.10
2022-12-26T03:50:22.190Z,933.09
2022-12-26T03:51:22.212Z,933.06
2022-12-26T03:52:22.229Z,933.11
2022-12-26T03:53:22.234Z,933.13
2022-12-26T03:54:22.256Z,933.13
2022-12-26T03:55:22.266Z,933.08
2022-12-26T03:56:22.292Z,933.05
2022-12-26T03:57:22.305Z,933.05
2022-12-26T03:58:22.319Z,933.04
2022-12-26T03:59:22.369Z,933.05
2022-12-26T04:00:22.353Z,933.05
2022-12-26T04:01:22.509Z,933.05
2022-12-26T04:02:22.524Z,933.06
2022-12-26T04:03:22.402Z,933.07
2022-12-26T04:04:22.414Z,933.02
2022-12-26T04:05:22.448Z,933.04
2022-12-26T04:06:22.473Z,932.98
2022-12-26T04:07:22.464Z,932.97
2022-12-26T04:08:22.470Z,932.96
2022-12-26T04:09:22.489Z,932.91
2022-12-26T04:10:22.513Z,932.90
2022-12-26T04:11:22.520Z,932.90
2022-12-26T04:12:22.531Z,932.92
2022-12-26T04:13:22.547Z,932.91
2022-12-26T04:14:22.565Z,932.88
2022-12-26T04:15:22.612Z,932.85
2022-12-26T04:16:22.656Z,932.84
2022-12-26T04:17:22.611Z,932.81
2022-12-26T04:18:22.634Z,932.79
2022-12-26T04:19:22.647Z,932.76
2022-12-26T04:20:22.668Z,932.72
2022-12-26T04:21:22.717Z,932.78
2022-12-26T04:22:22.701Z,932.77
2022-12-26T04:23:22.732Z,932.76
2022-12-26T04:24:22.726Z,932.77
2022-12-26T04:25:50.689Z,932.76
2022-12-26T04:26:22.755Z,932.80
2022-12-26T04:27:22.771Z,932.76
2022-12-26T04:28:22.784Z,932.74
2022-12-26T04:29:22.839Z,932.71
2022-12-26T04:30:22.815Z,932.72
2022-12-26T04:31:22.851Z,932.74
2022-12-26T04:32:22.851Z,932.74
2022-12-26T04:33:22.877Z,932.74
2022-12-26T04:34:22.875Z,932.74
2022-12-26T04:35:22.904Z,932.77
2022-12-26T04:36:22.910Z,932.77
2022-12-26T04:37:22.942Z,932.75
2022-12-26T04:38:22.942Z,932.78
2022-12-26T04:39:22.959Z,932.73
2022-12-26T04:40:22.968Z,932.77
2022-12-26T04:41:23.006Z,932.73
2022-12-26T04:42:23.013Z,932.75
2022-12-26T04:43:47.357Z,932.72
2022-12-26T04:44:23.029Z,932.72
2022-12-26T04:45:23.046Z,932.70
2022-12-26T04:46:23.174Z,932.71
2022-12-26T04:47:23.083Z,932.68
2022-12-26T04:48:23.107Z,932.68
2022-12-26T04:49:23.115Z,932.68
2022-12-26T04:50:23.121Z,932.62
2022-12-26T04:51:23.137Z,932.62
2022-12-26T04:52:23.168Z,932.62
2022-12-26T04:53:23.190Z,932.58
2022-12-26T04:54:23.189Z,932.56
2022-12-26T04:55:23.208Z,932.54
2022-12-26T04:56:23.216Z,932.54
2022-12-26T04:57:23.252Z,932.52
2022-12-26T04:58:23.246Z,932.53
2022-12-26T04:59:23.285Z,932.52
2022-12-26T05:00:23.289Z,932.54
2022-12-26T05:01:23.465Z,932.58
2022-12-26T05:02:23.484Z,932.56
2022-12-26T05:03:23.378Z,932.60
2022-12-26T05:04:23.353Z,932.53
2022-12-26T05:05:23.364Z,932.52
2022-12-26T05:06:23.378Z,932.54
2022-12-26T05:07:23.406Z,932.53
2022-12-26T05:08:23.410Z,932.51
2022-12-26T05:09:23.445Z,932.51
2022-12-26T05:10:23.441Z,932.54
2022-12-26T05:11:23.461Z,932.54
2022-12-26T05:12:23.472Z,932.53
2022-12-26T05:13:23.479Z,932.53
2022-12-26T05:14:23.496Z,932.54
2022-12-26T05:15:23.542Z,932.55
2022-12-26T05:16:23.559Z,932.52
2022-12-26T05:17:23.554Z,932.54
2022-12-26T05:18:23.556Z,932.53
2022-12-26T05:19:23.583Z,932.53
2022-12-26T05:20:23.606Z,932.51
2022-12-26T05:21:23.705Z,932.53
2022-12-26T05:22:23.632Z,932.50
2022-12-26T05:23:23.639Z,932.53
2022-12-26T05:24:23.651Z,932.52
2022-12-26T05:25:23.686Z,932.49
2022-12-26T05:26:23.684Z,932.51
2022-12-26T05:27:23.696Z,932.48
2022-12-26T05:28:23.716Z,932.45
2022-12-26T05:29:23.728Z,932.44
2022-12-26T05:30:23.751Z,932.39
2022-12-26T05:31:23.824Z,932.39
2022-12-26T05:32:23.774Z,932.36
2022-12-26T05:33:23.798Z,932.36
2022-12-26T05:34:23.813Z,932.38
2022-12-26T05:35:23.818Z,932.33
2022-12-26T05:36:23.845Z,932.33
2022-12-26T05:37:23.853Z,932.32
2022-12-26T05:38:23.874Z,932.34
2022-12-26T05:39:23.883Z,932.34
2022-12-26T05:40:23.897Z,932.34
2022-12-26T05:41:23.930Z,932.28
2022-12-26T05:42:23.935Z,932.29
2022-12-26T05:43:23.952Z,932.28
2022-12-26T05:44:23.962Z,932.22
2022-12-26T05:45:23.976Z,932.21
2022-12-26T05:46:24.007Z,932.25
2022-12-26T05:47:24.007Z,932.21
2022-12-26T05:48:24.032Z,932.23
2022-12-26T05:49:24.037Z,932.21
2022-12-26T05:50:24.059Z,932.23
2022-12-26T05:51:24.085Z,932.18
2022-12-26T05:52:24.102Z,932.18
2022-12-26T05:53:24.111Z,932.20
2022-12-26T05:54:24.115Z,932.25
2022-12-26T05:55:24.136Z,932.22
2022-12-26T05:56:24.146Z,932.24
2022-12-26T05:57:24.188Z,932.24
2022-12-26T05:58:24.192Z,932.27
2022-12-26T05:59:24.199Z,932.28
2022-12-26T06:00:24.217Z,932.22
2022-12-26T06:01:24.362Z,932.22
2022-12-26T06:02:24.278Z,932.27
2022-12-26T06:03:24.312Z,932.22
2022-12-26T06:04:24.278Z,932.25
2022-12-26T06:05:24.292Z,932.21
2022-12-26T06:06:24.313Z,932.21
2022-12-26T06:07:24.333Z,932.23
2022-12-26T06:08:24.337Z,932.25
2022-12-26T06:09:24.366Z,932.24
2022-12-26T06:10:24.373Z,932.22
2022-12-26T06:11:24.385Z,932.25
2022-12-26T06:12:24.413Z,932.22
2022-12-26T06:13:24.443Z,932.22
2022-12-26T06:14:24.430Z,932.22
2022-12-26T06:15:24.450Z,932.23
2022-12-26T06:16:24.581Z,932.17
2022-12-26T06:17:24.481Z,932.22
2022-12-26T06:18:24.493Z,932.23
2022-12-26T06:19:24.507Z,932.24
2022-12-26T06:20:24.549Z,932.20
2022-12-26T06:21:24.541Z,932.19
2022-12-26T06:22:24.554Z,932.20
2022-12-26T06:23:24.566Z,932.18
2022-12-26T06:24:24.580Z,932.21
2022-12-26T06:25:24.609Z,932.20
2022-12-26T06:26:24.638Z,932.18
2022-12-26T06:27:24.633Z,932.14
2022-12-26T06:28:24.649Z,932.15
2022-12-26T06:29:24.688Z,932.16
2022-12-26T06:30:24.694Z,932.19
2022-12-26T06:31:24.737Z,932.21
2022-12-26T06:32:24.711Z,932.23
2022-12-26T06:33:24.724Z,932.25
2022-12-26T06:34:24.743Z,932.28
2022-12-26T06:35:24.751Z,932.30
2022-12-26T06:36:24.763Z,932.33
2022-12-26T06:37:24.780Z,932.30
2022-12-26T06:38:24.803Z,932.29
2022-12-26T06:39:24.830Z,932.31
2022-12-26T06:40:24.832Z,932.33
2022-12-26T06:41:24.848Z,932.34
2022-12-26T06:42:24.867Z,932.34
2022-12-26T06:43:24.881Z,932.37
2022-12-26T06:44:24.887Z,932.35
2022-12-26T06:45:24.920Z,932.34
2022-12-26T06:46:25.096Z,932.32
2022-12-26T06:47:24.935Z,932.34
2022-12-26T06:48:24.950Z,932.35
2022-12-26T06:49:30.431Z,932.28
2022-12-26T06:50:24.997Z,932.27
2022-12-26T06:51:24.996Z,932.25
2022-12-26T06:52:25.012Z,932.22
2022-12-26T06:53:25.039Z,932.22
2022-12-26T06:54:25.050Z,932.18
2022-12-26T06:55:25.074Z,932.20
2022-12-26T06:56:25.081Z,932.16
2022-12-26T06:57:25.088Z,932.15
2022-12-26T06:58:25.108Z,932.12
2022-12-26T06:59:25.126Z,932.13
2022-12-26T07:00:25.214Z,932.08
2022-12-26T07:01:25.267Z,932.06
2022-12-26T07:02:25.397Z,932.03
2022-12-26T07:03:25.213Z,931.97
2022-12-26T07:04:25.246Z,931.96
2022-12-26T07:05:25.213Z,931.96
2022-12-26T07:06:25.253Z,931.94
2022-12-26T07:07:25.251Z,931.92
2022-12-26T07:08:25.269Z,931.91
2022-12-26T07:09:31.446Z,931.86
2022-12-26T07:10:25.292Z,931.83
2022-12-26T07:11:25.321Z,931.80
2022-12-26T07:12:25.328Z,931.81
2022-12-26T07:13:25.356Z,931.77
2022-12-26T07:14:25.350Z,931.75
2022-12-26T07:15:25.394Z,931.74
2022-12-26T07:16:25.445Z,931.70
2022-12-26T07:17:25.424Z,931.72
2022-12-26T07:18:25.419Z,931.71
2022-12-26T07:19:25.438Z,931.70
2022-12-26T07:20:25.449Z,931.69
2022-12-26T07:21:25.485Z,931.64
2022-12-26T07:22:25.483Z,931.67
2022-12-26T07:23:25.529Z,931.62
2022-12-26T07:24:25.512Z,931.62
2022-12-26T07:25:25.527Z,931.63
2022-12-26T07:26:25.547Z,931.60
2022-12-26T07:27:25.557Z,931.59
2022-12-26T07:28:25.576Z,931.63
2022-12-26T07:29:25.591Z,931.63
2022-12-26T07:30:25.603Z,931.61
2022-12-26T07:31:25.709Z,931.61
2022-12-26T07:32:25.630Z,931.61
2022-12-26T07:33:25.670Z,931.55
2022-12-26T07:34:31.201Z,931.59
2022-12-26T07:35:25.680Z,931.52
2022-12-26T07:36:25.701Z,931.53
2022-12-26T07:37:25.712Z,931.57
2022-12-26T07:38:25.719Z,931.58
2022-12-26T07:39:25.735Z,931.60
2022-12-26T07:40:25.757Z,931.59
2022-12-26T07:41:25.780Z,931.59
2022-12-26T07:42:25.781Z,931.59
2022-12-26T07:43:25.801Z,931.62
2022-12-26T07:44:25.822Z,931.61
2022-12-26T07:45:25.871Z,931.63
2022-12-26T07:46:25.866Z,931.62
2022-12-26T07:47:25.855Z,931.61
2022-12-26T07:48:25.875Z,931.60
2022-12-26T07:49:25.918Z,931.56
2022-12-26T07:50:25.920Z,931.56
2022-12-26T07:51:25.921Z,931.53
2022-12-26T07:52:26.643Z,931.56
2022-12-26T07:53:25.957Z,931.54
2022-12-26T07:54:25.974Z,931.55
2022-12-26T07:55:25.993Z,931.55
2022-12-26T07:56:26.002Z,931.56
2022-12-26T07:58:26.026Z,931.55
2022-12-26T07:59:26.049Z,931.58
2022-12-26T08:00:26.064Z,931.57
2022-12-26T08:01:26.198Z,931.59
2022-12-26T08:02:26.238Z,931.54
2022-12-26T08:03:26.193Z,931.59
2022-12-26T08:04:26.120Z,931.54
2022-12-26T08:05:26.165Z,931.57
2022-12-26T08:06:26.149Z,931.54
2022-12-26T08:07:26.171Z,931.54
2022-12-26T08:08:26.187Z,931.55
2022-12-26T08:09:26.196Z,931.52
2022-12-26T08:10:26.280Z,931.54
2022-12-26T08:11:26.231Z,931.57
2022-12-26T08:12:26.240Z,931.58
2022-12-26T08:13:26.256Z,931.62
2022-12-26T08:14:26.276Z,931.67
2022-12-26T08:15:26.295Z,931.68
2022-12-26T08:16:26.375Z,931.73
2022-12-26T08:17:26.325Z,931.75
2022-12-26T08:18:26.356Z,931.80
2022-12-26T08:19:26.353Z,931.82
2022-12-26T08:20:26.454Z,931.87
2022-12-26T08:21:26.400Z,931.89
2022-12-26T08:22:26.393Z,931.92
2022-12-26T08:23:26.415Z,931.97
2022-12-26T08:24:26.425Z,931.98
2022-12-26T08:25:26.446Z,932.00
2022-12-26T08:26:26.454Z,932.05
2022-12-26T08:27:26.475Z,932.05
2022-12-26T08:28:26.487Z,932.05
2022-12-26T08:29:26.502Z,932.12
2022-12-26T08:30:26.639Z,932.17
2022-12-26T08:32:26.557Z,932.21
2022-12-26T08:33:26.572Z,932.19
2022-12-26T08:34:26.577Z,932.18
2022-12-26T08:35:26.600Z,932.19
2022-12-26T08:36:26.619Z,932.25
2022-12-26T08:37:26.671Z,932.22
2022-12-26T08:38:31.919Z,932.25
2022-12-26T08:39:26.653Z,932.27
2022-12-26T08:40:41.902Z,932.32
2022-12-26T08:41:26.733Z,932.31
2022-12-26T08:42:26.699Z,932.33
2022-12-26T08:44:28.212Z,932.38
2022-12-26T08:45:26.752Z,932.39
2022-12-26T08:46:26.771Z,932.36
2022-12-26T08:47:26.783Z,932.37
2022-12-26T08:48:26.817Z,932.37
2022-12-26T08:49:26.817Z,932.32
2022-12-26T08:50:26.843Z,932.38
2022-12-26T08:51:26.850Z,932.36
2022-12-26T08:52:26.858Z,932.34
2022-12-26T08:53:26.913Z,932.36
2022-12-26T08:54:26.891Z,932.39
2022-12-26T08:55:26.909Z,932.35
2022-12-26T08:56:26.926Z,932.42
2022-12-26T08:57:26.937Z,932.41
2022-12-26T08:58:26.977Z,932.42
2022-12-26T08:59:26.966Z,932.42
2022-12-26T09:00:26.985Z,932.46
2022-12-26T09:01:27.274Z,932.46
2022-12-26T09:02:27.277Z,932.45
2022-12-26T09:03:27.098Z,932.51
2022-12-26T09:04:27.040Z,932.50
2022-12-26T09:05:27.059Z,932.49
2022-12-26T09:06:27.081Z,932.47
2022-12-26T09:07:27.082Z,932.49
2022-12-26T09:08:27.097Z,932.50
2022-12-26T09:09:27.138Z,932.52
2022-12-26T09:10:27.134Z,932.54
2022-12-26T09:11:27.168Z,932.56
2022-12-26T09:12:27.165Z,932.60
2022-12-26T09:13:27.182Z,932.57
2022-12-26T09:14:27.201Z,932.57
2022-12-26T09:15:27.204Z,932.58
2022-12-26T09:16:27.768Z,932.64
2022-12-26T09:17:27.295Z,932.65
2022-12-26T09:18:27.257Z,932.64
2022-12-26T09:19:27.272Z,932.67
2022-12-26T09:20:27.298Z,932.68
2022-12-26T09:21:27.311Z,932.70
2022-12-26T09:22:31.940Z,932.67
2022-12-26T09:23:27.326Z,932.72
2022-12-26T09:24:27.341Z,932.72
2022-12-26T09:25:27.380Z,932.74
2022-12-26T09:26:27.377Z,932.75
2022-12-26T09:27:27.385Z,932.74
2022-12-26T09:28:27.402Z,932.77
2022-12-26T09:29:27.417Z,932.79
2022-12-26T09:30:27.434Z,932.79
2022-12-26T09:31:27.533Z,932.82
2022-12-26T09:32:27.473Z,932.83
2022-12-26T09:33:27.485Z,932.79
2022-12-26T09:34:27.492Z,932.83
2022-12-26T09:35:27.509Z,932.85
2022-12-26T09:36:27.550Z,932.83
2022-12-26T09:37:27.541Z,932.83
2022-12-26T09:38:27.561Z,932.83
2022-12-26T09:39:27.575Z,932.81
2022-12-26T09:40:27.595Z,932.82
2022-12-26T09:41:27.632Z,932.81
2022-12-26T09:42:27.626Z,932.81
2022-12-26T09:43:27.650Z,932.85
2022-12-26T09:44:27.661Z,932.85
2022-12-26T09:45:27.661Z,932.80
2022-12-26T09:46:27.749Z,932.84
2022-12-26T09:47:27.704Z,932.81
2022-12-26T09:48:27.714Z,932.85
2022-12-26T09:49:27.730Z,932.82
2022-12-26T09:50:27.744Z,932.84
2022-12-26T09:51:27.759Z,932.91
2022-12-26T09:52:27.777Z,932.90
2022-12-26T09:53:27.784Z,932.85
2022-12-26T09:54:27.807Z,932.86
2022-12-26T09:55:27.813Z,932.87
2022-12-26T09:57:27.872Z,932.84
2022-12-26T09:58:27.865Z,932.85
2022-12-26T09:59:27.873Z,932.81
2022-12-26T10:00:27.904Z,932.80
2022-12-26T10:01:27.990Z,932.80
2022-12-26T10:02:28.115Z,932.79
2022-12-26T10:03:27.947Z,932.85
2022-12-26T10:04:29.958Z,932.86
2022-12-26T10:05:27.974Z,932.85
2022-12-26T10:06:27.985Z,932.90
2022-12-26T10:07:27.996Z,932.90
2022-12-26T10:08:28.013Z,932.87
2022-12-26T10:09:28.045Z,932.93
2022-12-26T10:10:28.042Z,932.91
2022-12-26T10:11:28.057Z,932.94
2022-12-26T10:12:28.073Z,932.89
2022-12-26T10:13:28.114Z,932.91
2022-12-26T10:14:28.103Z,932.92
2022-12-26T10:15:28.119Z,932.93
2022-12-26T10:16:28.133Z,932.95
2022-12-26T10:17:28.159Z,932.95
2022-12-26T10:18:28.176Z,932.96
2022-12-26T10:19:32.537Z,932.99
2022-12-26T10:20:28.210Z,933.00
2022-12-26T10:21:28.216Z,933.00
2022-12-26T10:22:28.236Z,933.04
2022-12-26T10:23:28.241Z,933.05
2022-12-26T10:24:28.286Z,933.10
2022-12-26T10:25:33.603Z,933.10
2022-12-26T10:26:28.294Z,933.08
2022-12-26T10:27:28.321Z,933.08
2022-12-26T10:28:28.315Z,933.13
2022-12-26T10:29:28.370Z,933.18
2022-12-26T10:30:28.354Z,933.15
2022-12-26T10:31:28.436Z,933.16
2022-12-26T10:32:28.479Z,933.15
2022-12-26T10:33:28.400Z,933.17
2022-12-26T10:34:28.407Z,933.12
2022-12-26T10:35:28.425Z,933.14
2022-12-26T10:36:28.437Z,933.18
2022-12-26T10:37:28.466Z,933.17
2022-12-26T10:38:28.485Z,933.16
2022-12-26T10:39:28.500Z,933.19
2022-12-26T10:40:28.500Z,933.23
2022-12-26T10:41:28.514Z,933.25
2022-12-26T10:42:28.528Z,933.22
2022-12-26T10:43:28.571Z,933.25
2022-12-26T10:44:28.567Z,933.22
2022-12-26T10:45:28.712Z,933.23
2022-12-26T10:46:28.623Z,933.27
2022-12-26T10:47:28.605Z,933.26
2022-12-26T10:48:28.621Z,933.26
2022-12-26T10:49:28.661Z,933.26
2022-12-26T10:50:28.771Z,933.26
2022-12-26T10:51:28.668Z,933.28
2022-12-26T10:52:28.689Z,933.25
2022-12-26T10:53:28.701Z,933.26
2022-12-26T10:54:28.721Z,933.30
2022-12-26T10:55:31.940Z,933.31
2022-12-26T10:56:28.794Z,933.27
2022-12-26T10:57:28.765Z,933.31
2022-12-26T10:58:28.773Z,933.32
2022-12-26T10:59:28.831Z,933.32
2022-12-26T11:00:28.819Z,933.36
2022-12-26T11:01:29.043Z,933.34
2022-12-26T11:02:29.072Z,933.37
2022-12-26T11:03:28.919Z,933.37
2022-12-26T11:05:02.251Z,933.37
2022-12-26T11:06:07.051Z,933.35
2022-12-26T11:06:28.904Z,933.34
2022-12-26T11:07:28.910Z,933.34
2022-12-26T11:08:28.924Z,933.36
2022-12-26T11:09:28.947Z,933.37
2022-12-26T11:10:28.957Z,933.33
2022-12-26T11:11:28.968Z,933.36
2022-12-26T11:12:28.992Z,933.37
2022-12-26T11:13:29.009Z,933.33
2022-12-26T11:14:33.792Z,933.31
2022-12-26T11:15:29.031Z,933.33
2022-12-26T11:16:29.233Z,933.34
2022-12-26T11:17:29.088Z,933.37
2022-12-26T11:18:29.077Z,933.39
2022-12-26T11:19:29.109Z,933.40
2022-12-26T11:20:29.127Z,933.37
2022-12-26T11:21:29.134Z,933.33
2022-12-26T11:22:29.139Z,933.34
2022-12-26T11:23:29.188Z,933.35
2022-12-26T11:24:29.177Z,933.36
2022-12-26T11:25:29.184Z,933.33
2022-12-26T11:26:29.207Z,933.35
2022-12-26T11:27:29.225Z,933.35
2022-12-26T11:28:29.239Z,933.36
2022-12-26T11:29:29.251Z,933.37
2022-12-26T11:30:29.267Z,933.38
2022-12-26T11:31:29.310Z,933.36
2022-12-26T11:32:29.290Z,933.35
2022-12-26T11:33:29.339Z,933.34
2022-12-26T11:34:29.320Z,933.34
2022-12-26T11:35:29.346Z,933.35
2022-12-26T11:36:29.350Z,933.35
2022-12-26T11:37:29.379Z,933.36
2022-12-26T11:38:29.383Z,933.38
2022-12-26T11:39:29.403Z,933.37
2022-12-26T11:40:29.411Z,933.37
2022-12-26T11:41:29.460Z,933.41
2022-12-26T11:42:29.441Z,933.40
2022-12-26T11:43:29.466Z,933.39
2022-12-26T11:44:29.479Z,933.38
2022-12-26T11:45:34.045Z,933.45
2022-12-26T11:46:29.574Z,933.42
2022-12-26T11:47:29.523Z,933.43
2022-12-26T11:48:29.532Z,933.47
2022-12-26T11:49:29.575Z,933.49
2022-12-26T11:50:29.569Z,933.50
2022-12-26T11:51:29.586Z,933.49
2022-12-26T11:52:29.606Z,933.47
2022-12-26T11:53:29.609Z,933.49
2022-12-26T11:54:29.625Z,933.47
2022-12-26T11:55:29.643Z,933.48
2022-12-26T11:56:29.702Z,933.51
2022-12-26T11:57:29.675Z,933.51
2022-12-26T11:58:29.696Z,933.46
2022-12-26T11:59:29.699Z,933.48
2022-12-26T12:00:29.714Z,933.50
2022-12-26T12:01:29.768Z,933.50
2022-12-26T12:02:29.865Z,933.53
2022-12-26T12:03:29.778Z,933.52
2022-12-26T12:04:29.776Z,933.56
2022-12-26T12:05:29.814Z,933.54
2022-12-26T12:06:29.823Z,933.60
2022-12-26T12:07:29.824Z,933.62
2022-12-26T12:08:29.836Z,933.65
2022-12-26T12:09:29.852Z,933.63
2022-12-26T12:10:29.871Z,933.64
2022-12-26T12:11:29.884Z,933.63
2022-12-26T12:12:29.906Z,933.63
2022-12-26T12:13:29.913Z,933.65
2022-12-26T12:14:29.928Z,933.64
2022-12-26T12:15:29.953Z,933.69
2022-12-26T12:16:30.156Z,933.71
2022-12-26T12:17:29.991Z,933.68
2022-12-26T12:18:29.996Z,933.68
2022-12-26T12:19:30.007Z,933.67
2022-12-26T12:20:30.034Z,933.68
2022-12-26T12:21:30.057Z,933.69
2022-12-26T12:22:30.057Z,933.68
2022-12-26T12:23:30.067Z,933.68
2022-12-26T12:24:30.119Z,933.72
2022-12-26T12:25:30.109Z,933.72
2022-12-26T12:26:30.110Z,933.72
2022-12-26T12:27:30.142Z,933.69
2022-12-26T12:28:30.150Z,933.73
2022-12-26T12:29:30.171Z,933.74
2022-12-26T12:30:30.180Z,933.72
2022-12-26T12:31:30.235Z,933.75
2022-12-26T12:32:30.209Z,933.76